Time;durP1;ratioP1;P1;durP2;ratioP2;P2;SDS_P1;SDS_P2;PMS_P1;PMS_P2;Temp;Humidity;BMP_temperature;BMP_pressure;BME280_temperature;BME280_humidity;BME280_pressure;Samples;Min_cycle;Max_cycle;Signal;HPM_P1;HPM_P2
2022/04/25 00:01:57;;;;;;;182.20;77.65;;;4.20;99.90;;;;;;5058325;28;20514;-85
2022/04/25 00:04:23;;;;;;;225.75;83.00;;;4.30;99.90;;;;;;5074399;28;20028;-85
2022/04/25 00:06:49;;;;;;;172.40;74.03;;;4.30;99.90;;;;;;5057982;28;20395;-85
2022/04/25 00:09:14;;;;;;;174.52;70.85;;;4.40;99.90;;;;;;5057676;28;20041;-85
2022/04/25 00:11:40;;;;;;;185.30;71.50;;;4.50;99.90;;;;;;5058102;28;20082;-85
2022/04/25 00:14:07;;;;;;;194.20;74.60;;;4.60;99.90;;;;;;5074447;28;20028;-85
2022/04/25 00:16:33;;;;;;;170.02;70.95;;;4.50;99.90;;;;;;5057948;28;20042;-85
2022/04/25 00:19:00;;;;;;;164.68;70.20;;;4.50;99.90;;;;;;5057017;28;20476;-85
2022/04/25 00:21:26;;;;;;;159.32;69.15;;;4.50;99.90;;;;;;5073906;28;20083;-85
2022/04/25 00:23:52;;;;;;;161.27;70.00;;;4.50;99.90;;;;;;5057229;28;20365;-84
2022/04/25 00:26:18;;;;;;;161.45;69.40;;;4.50;99.90;;;;;;5057505;28;20383;-85
2022/04/25 00:32:07;;;;;;;155.70;66.70;;;4.30;99.90;;;;;;5073859;28;20062;-85
2022/04/25 00:34:33;;;;;;;160.20;67.45;;;4.20;99.90;;;;;;5057042;28;20032;-85
2022/04/25 00:36:59;;;;;;;152.70;65.63;;;4.20;99.90;;;;;;5075449;28;20032;-84
2022/04/25 00:39:24;;;;;;;159.98;66.28;;;4.10;99.90;;;;;;5057311;28;20043;-85
2022/04/25 00:41:50;;;;;;;161.57;67.20;;;4.00;99.90;;;;;;5057390;28;20020;-85
2022/04/25 00:44:16;;;;;;;279.25;69.10;;;4.00;99.90;;;;;;5057026;28;20025;-85
2022/04/25 00:46:47;;;;;;;454.90;78.07;;;4.10;99.90;;;;;;5073696;28;20193;-85
2022/04/25 00:49:14;;;;;;;253.32;75.82;;;4.20;99.90;;;;;;5056792;28;20029;-85
2022/04/25 00:51:40;;;;;;;252.55;76.38;;;4.30;99.90;;;;;;5073122;28;20045;-85
2022/04/25 00:54:07;;;;;;;205.57;73.57;;;4.30;99.90;;;;;;5056488;28;20033;-84
2022/04/25 00:56:35;;;;;;;195.15;71.28;;;4.40;99.90;;;;;;5073665;28;20506;-85
2022/04/25 00:59:02;;;;;;;193.43;76.93;;;4.30;99.90;;;;;;5056818;28;20043;-85
2022/04/25 01:01:28;;;;;;;185.43;74.57;;;4.20;99.90;;;;;;5073574;28;20434;-85
2022/04/25 01:03:54;;;;;;;190.32;73.05;;;4.20;99.90;;;;;;5056471;28;20094;-85
2022/04/25 01:06:20;;;;;;;188.23;72.88;;;4.20;99.90;;;;;;5056974;28;20040;-85
2022/04/25 01:08:46;;;;;;;181.30;70.40;;;4.10;99.90;;;;;;5056989;28;20028;-85
2022/04/25 01:11:13;;;;;;;177.93;70.93;;;4.00;99.90;;;;;;5056541;28;20119;-84
2022/04/25 01:13:39;;;;;;;179.63;68.07;;;3.90;99.90;;;;;;5074220;28;20063;-85
2022/04/25 01:16:05;;;;;;;159.98;65.60;;;3.80;99.90;;;;;;5056078;28;20063;-85
2022/04/25 01:18:30;;;;;;;224.48;73.97;;;3.80;99.90;;;;;;5073188;28;20041;-84
2022/04/25 01:20:58;;;;;;;171.60;69.53;;;3.50;99.90;;;;;;5056207;28;20090;-84
2022/04/25 01:28:54;;;;;;;150.68;60.35;;;3.30;99.90;;;;;;5074245;28;20526;-85
2022/04/25 01:31:19;;;;;;;152.48;62.78;;;3.20;99.90;;;;;;5056385;28;20032;-85
2022/04/25 01:33:45;;;;;;;145.55;60.22;;;3.10;99.90;;;;;;5072736;28;20430;-84
2022/04/25 01:36:11;;;;;;;142.45;57.60;;;2.90;99.90;;;;;;5056169;28;20075;-85
2022/04/25 01:38:37;;;;;;;147.90;61.08;;;2.80;99.90;;;;;;5056280;28;20032;-84
2022/04/25 01:41:03;;;;;;;153.27;63.55;;;2.60;99.90;;;;;;5072419;28;20482;-84
2022/04/25 01:43:29;;;;;;;150.43;62.15;;;2.50;99.90;;;;;;5055803;28;20032;-84
2022/04/25 01:45:54;;;;;;;152.30;59.83;;;2.50;99.90;;;;;;5055914;28;20044;-84
2022/04/25 01:48:21;;;;;;;150.77;60.55;;;2.40;99.90;;;;;;5056047;28;20020;-85
2022/04/25 01:50:49;;;;;;;154.10;61.05;;;2.40;99.90;;;;;;5055950;28;20115;-85
2022/04/25 01:53:15;;;;;;;157.65;61.47;;;2.40;99.90;;;;;;5055365;28;20150;-84
2022/04/25 01:55:41;;;;;;;158.75;61.55;;;2.40;99.90;;;;;;5072411;28;20040;-84
2022/04/25 01:58:07;;;;;;;159.00;61.80;;;2.50;99.90;;;;;;5055397;28;20033;-84
2022/04/25 02:00:33;;;;;;;163.23;62.35;;;2.60;99.90;;;;;;5072247;28;20116;-84
2022/04/25 02:02:58;;;;;;;142.98;59.00;;;2.50;99.90;;;;;;5055560;28;20025;-85
2022/04/25 02:05:24;;;;;;;165.57;64.20;;;2.50;99.90;;;;;;5054842;28;20039;-85
2022/04/25 02:07:50;;;;;;;161.25;62.40;;;2.40;99.90;;;;;;5055294;28;20131;-84
2022/04/25 02:10:15;;;;;;;154.02;61.47;;;2.40;99.90;;;;;;5055383;28;20028;-84
2022/04/25 02:12:43;;;;;;;159.10;62.70;;;2.40;99.90;;;;;;5055348;28;20482;-84
2022/04/25 02:15:13;;;;;;;159.82;62.85;;;2.40;99.90;;;;;;5055214;28;20125;-84
2022/04/25 02:17:42;;;;;;;167.50;64.03;;;2.40;99.90;;;;;;5071758;28;20036;-85
2022/04/25 02:20:09;;;;;;;173.38;68.65;;;2.40;99.90;;;;;;5071671;28;20040;-84
2022/04/25 02:22:35;;;;;;;187.73;72.72;;;2.40;99.90;;;;;;5072125;28;20025;-85
2022/04/25 02:25:01;;;;;;;195.20;75.63;;;2.50;99.90;;;;;;5055132;28;20044;-84
2022/04/25 02:27:27;;;;;;;178.95;70.82;;;2.50;99.90;;;;;;5055249;28;20442;-84
2022/04/25 02:29:58;;;;;;;186.77;71.18;;;2.60;99.90;;;;;;5055048;28;20036;-85
2022/04/25 02:32:28;;;;;;;182.48;70.35;;;2.60;99.90;;;;;;5054824;28;20036;-85
2022/04/25 02:34:54;;;;;;;181.48;68.80;;;2.50;99.90;;;;;;5055189;28;20032;-85
2022/04/25 02:37:24;;;;;;;168.80;68.18;;;2.50;99.90;;;;;;5055070;28;20032;-85
2022/04/25 02:39:50;;;;;;;171.32;67.28;;;2.40;99.90;;;;;;5055089;28;20119;-85
2022/04/25 02:42:16;;;;;;;164.63;63.53;;;2.40;99.90;;;;;;5071554;28;20112;-85
2022/04/25 02:44:42;;;;;;;172.82;66.90;;;2.40;99.90;;;;;;5071174;28;20112;-85
2022/04/25 02:47:33;;;;;;;173.63;68.28;;;2.30;99.90;;;;;;5054622;28;20032;-85
2022/04/25 02:49:59;;;;;;;159.57;64.43;;;2.20;99.90;;;;;;5054747;28;20029;-84
2022/04/25 02:52:24;;;;;;;170.10;65.90;;;2.20;99.90;;;;;;5054697;28;20154;-85
2022/04/25 02:54:50;;;;;;;155.35;62.72;;;2.20;99.90;;;;;;5054612;28;20752;-85
2022/04/25 02:57:16;;;;;;;162.93;61.65;;;2.20;99.90;;;;;;5055038;28;20032;-85
2022/04/25 02:59:41;;;;;;;146.85;60.85;;;2.10;99.90;;;;;;5054581;28;20068;-85
2022/04/25 03:02:29;;;;;;;147.98;60.28;;;2.00;99.90;;;;;;5054772;28;20025;-85
2022/04/25 03:04:55;;;;;;;144.57;60.00;;;2.00;99.90;;;;;;5054375;28;20799;-85
2022/04/25 03:07:20;;;;;;;150.52;58.20;;;2.00;99.90;;;;;;5054926;28;20128;-85
2022/04/25 03:09:46;;;;;;;152.13;61.22;;;1.90;99.90;;;;;;5054767;28;20472;-85
2022/04/25 03:12:12;;;;;;;152.40;60.22;;;1.90;99.90;;;;;;5071323;28;20123;-85
2022/04/25 03:14:37;;;;;;;157.15;61.70;;;1.80;99.90;;;;;;5054315;28;20028;-85
2022/04/25 03:17:03;;;;;;;159.68;62.60;;;1.80;99.90;;;;;;5058147;28;20119;-85
2022/04/25 03:19:30;;;;;;;154.70;62.45;;;1.80;99.90;;;;;;5058799;28;20479;-85
2022/04/25 03:21:56;;;;;;;173.13;66.38;;;1.80;99.90;;;;;;5058604;28;20029;-85
2022/04/25 03:24:21;;;;;;;162.73;64.88;;;1.80;99.90;;;;;;5058125;28;20119;-85
2022/04/25 03:26:47;;;;;;;159.80;63.88;;;1.90;99.90;;;;;;5076446;28;20031;-85
2022/04/25 03:29:13;;;;;;;154.13;61.88;;;1.90;99.90;;;;;;5075355;28;20033;-85
2022/04/25 03:31:39;;;;;;;148.77;58.33;;;1.90;99.90;;;;;;5058768;28;20565;-85
2022/04/25 03:34:05;;;;;;;146.23;56.92;;;1.90;99.90;;;;;;5057887;28;20033;-85
2022/04/25 03:36:31;;;;;;;144.70;58.08;;;1.80;99.90;;;;;;5074565;28;20207;-85
2022/04/25 03:38:57;;;;;;;145.18;57.33;;;1.80;99.90;;;;;;5074986;28;20073;-85
2022/04/25 03:41:23;;;;;;;136.30;54.80;;;1.80;99.90;;;;;;5075050;28;20119;-86
2022/04/25 03:43:48;;;;;;;139.40;55.50;;;1.70;99.90;;;;;;5058408;28;20032;-85
2022/04/25 03:46:14;;;;;;;142.68;57.75;;;1.60;99.90;;;;;;5058270;28;20032;-85
2022/04/25 03:48:41;;;;;;;145.00;58.17;;;1.60;99.90;;;;;;5058505;28;20054;-85
2022/04/25 03:51:07;;;;;;;166.38;60.63;;;1.60;99.90;;;;;;5058316;28;20040;-85
2022/04/25 03:53:33;;;;;;;147.90;59.15;;;1.60;99.90;;;;;;5057836;28;20083;-86
2022/04/25 03:58:43;;;;;;;139.93;56.13;;;1.60;99.90;;;;;;5074596;28;20568;-85
2022/04/25 04:01:09;;;;;;;132.02;54.20;;;1.50;99.90;;;;;;5074094;28;20039;-86
2022/04/25 04:03:35;;;;;;;149.82;57.17;;;1.50;99.90;;;;;;5057495;28;20028;-85
2022/04/25 04:06:01;;;;;;;138.48;54.97;;;1.50;99.90;;;;;;5057581;28;20039;-85
2022/04/25 04:08:26;;;;;;;141.07;55.83;;;1.50;99.90;;;;;;5074048;28;20430;-85
2022/04/25 04:10:52;;;;;;;140.75;55.85;;;1.40;99.90;;;;;;5074647;28;20037;-85
2022/04/25 04:13:19;;;;;;;159.90;63.97;;;1.50;99.90;;;;;;5074509;28;20032;-86
2022/04/25 04:15:44;;;;;;;146.18;60.35;;;1.60;99.90;;;;;;5076153;28;20181;-83
2022/04/25 04:18:10;;;;;;;145.70;60.75;;;1.60;99.90;;;;;;5074337;28;20059;-84
2022/04/25 04:20:37;;;;;;;153.68;61.13;;;1.60;99.90;;;;;;5057393;28;20025;-83
2022/04/25 04:23:04;;;;;;;137.52;58.08;;;1.70;99.90;;;;;;5057509;28;20540;-83
2022/04/25 04:25:31;;;;;;;150.95;60.42;;;1.70;99.90;;;;;;5074246;28;20024;-83
2022/04/25 04:27:57;;;;;;;152.73;61.75;;;1.70;99.90;;;;;;5054759;28;20032;-83
2022/04/25 04:30:22;;;;;;;147.63;58.05;;;1.70;99.90;;;;;;5073403;28;20120;-83
2022/04/25 04:32:50;;;;;;;139.57;55.75;;;1.70;99.90;;;;;;5052367;28;20115;-84
2022/04/25 04:36:17;;;;;;;154.63;63.20;;;1.70;99.90;;;;;;5057344;28;20085;-83
2022/04/25 04:38:05;;;;;;;144.80;58.05;;;1.80;99.90;;;;;;5074106;28;20029;-83
2022/04/25 04:40:31;;;;;;;155.80;63.92;;;1.80;99.90;;;;;;5056846;28;20056;-83
2022/04/25 04:42:57;;;;;;;177.90;68.63;;;1.80;99.90;;;;;;5057284;28;20373;-83
2022/04/25 04:45:24;;;;;;;174.73;72.88;;;1.90;99.90;;;;;;5057046;28;20055;-83
2022/04/25 04:47:50;;;;;;;169.90;68.07;;;2.00;99.90;;;;;;5056992;28;20060;-84
2022/04/25 04:50:16;;;;;;;178.25;72.35;;;2.20;99.90;;;;;;5073792;28;20432;-83
2022/04/25 04:52:44;;;;;;;193.23;77.45;;;2.30;99.90;;;;;;5073760;28;20112;-83
2022/04/25 04:55:10;;;;;;;188.45;75.78;;;2.50;99.90;;;;;;5056633;28;20032;-83
2022/04/25 04:57:38;;;;;;;179.80;76.70;;;2.70;99.90;;;;;;5056475;28;20619;-83
2022/04/25 05:00:09;;;;;;;189.88;79.10;;;2.90;99.90;;;;;;5056556;28;20033;-83
2022/04/25 05:02:35;;;;;;;187.77;79.07;;;3.20;99.90;;;;;;5073397;28;20024;-83
2022/04/25 05:05:01;;;;;;;167.57;73.78;;;3.40;99.90;;;;;;5052432;28;20021;-83
2022/04/25 05:07:27;;;;;;;175.13;72.47;;;3.50;99.90;;;;;;5056481;28;20044;-83
2022/04/25 05:09:53;;;;;;;168.90;72.72;;;3.60;99.90;;;;;;5073239;28;20024;-83
2022/04/25 05:12:20;;;;;;;170.60;75.22;;;3.70;99.90;;;;;;5073366;28;20503;-84
2022/04/25 05:14:46;;;;;;;170.27;73.35;;;3.80;99.90;;;;;;5056105;28;20069;-83
2022/04/25 05:17:12;;;;;;;176.73;76.63;;;3.90;99.90;;;;;;5072695;28;20032;-84
2022/04/25 05:19:37;;;;;;;182.35;78.18;;;4.00;99.90;;;;;;5072857;28;20040;-84
2022/04/25 05:22:03;;;;;;;186.18;79.03;;;4.00;99.90;;;;;;5056232;28;20058;-84
2022/04/25 05:24:29;;;;;;;192.88;78.88;;;4.00;99.90;;;;;;5056110;28;20032;-84
2022/04/25 05:26:55;;;;;;;220.45;90.75;;;4.00;99.90;;;;;;5072666;28;20047;-84
2022/04/25 05:29:21;;;;;;;219.73;89.50;;;4.10;99.90;;;;;;5055838;28;20484;-84
2022/04/25 05:31:49;;;;;;;189.45;80.43;;;4.20;99.90;;;;;;5055627;28;20037;-84
2022/04/25 05:34:15;;;;;;;175.15;78.22;;;4.30;99.90;;;;;;5072105;28;20063;-83
2022/04/25 05:36:42;;;;;;;183.73;75.65;;;4.40;99.90;;;;;;5068454;28;20029;-83
2022/04/25 05:39:08;;;;;;;172.73;76.53;;;4.50;99.90;;;;;;5054996;28;20032;-83
2022/04/25 05:41:36;;;;;;;185.70;79.13;;;4.60;99.90;;;;;;5073059;28;20033;-83
2022/04/25 05:44:03;;;;;;;186.85;81.10;;;4.70;99.90;;;;;;5055814;28;20387;-83
2022/04/25 05:46:30;;;;;;;189.00;82.85;;;4.80;99.90;;;;;;5072692;28;20104;-84
2022/04/25 05:51:59;;;;;;;188.30;83.47;;;5.20;99.90;;;;;;5073436;28;20051;-84
2022/04/25 05:54:26;;;;;;;178.00;80.68;;;5.40;99.90;;;;;;5071894;28;20028;-83
2022/04/25 05:56:52;;;;;;;188.57;80.60;;;5.60;99.90;;;;;;5055665;28;20028;-84
2022/04/25 05:59:19;;;;;;;170.93;79.03;;;5.80;99.90;;;;;;5055037;28;20040;-84
2022/04/25 06:01:44;;;;;;;181.00;82.18;;;6.00;99.90;;;;;;5072367;28;20036;-83
2022/04/25 06:04:10;;;;;;;177.52;78.70;;;6.20;99.90;;;;;;5055335;28;20032;-84
2022/04/25 06:06:36;;;;;;;156.45;77.28;;;6.40;99.90;;;;;;5051466;28;20090;-83
2022/04/25 06:09:02;;;;;;;150.32;72.28;;;6.70;99.90;;;;;;5055116;28;20488;-84
2022/04/25 06:11:29;;;;;;;126.80;65.80;;;6.90;99.90;;;;;;5071642;28;20033;-83
2022/04/25 06:13:56;;;;;;;113.50;61.35;;;7.00;99.90;;;;;;5054465;28;20028;-83
2022/04/25 06:16:21;;;;;;;102.40;55.75;;;7.20;99.90;;;;;;5054792;28;20036;-83
2022/04/25 06:18:47;;;;;;;86.78;52.22;;;7.30;99.90;;;;;;5054602;28;20434;-83
2022/04/25 06:21:13;;;;;;;75.50;46.55;;;7.30;99.90;;;;;;5054979;28;20039;-84
2022/04/25 06:23:39;;;;;;;69.78;42.10;;;7.30;99.90;;;;;;5072733;28;20056;-84
2022/04/25 06:26:05;;;;;;;70.63;45.65;;;7.30;99.90;;;;;;5054899;28;20143;-83
2022/04/25 06:28:30;;;;;;;60.90;38.13;;;7.60;99.90;;;;;;5054682;28;20029;-84
2022/04/25 06:30:56;;;;;;;52.28;33.80;;;7.80;99.90;;;;;;5055009;28;20395;-83
2022/04/25 06:33:22;;;;;;;47.15;30.58;;;7.80;99.90;;;;;;5072941;28;20029;-84
2022/04/25 06:35:49;;;;;;;42.28;28.30;;;8.20;99.90;;;;;;5050947;28;20035;-84
2022/04/25 06:38:15;;;;;;;36.50;24.88;;;8.60;99.90;;;;;;5071835;28;20040;-83
2022/04/25 06:40:42;;;;;;;34.50;23.15;;;8.50;99.90;;;;;;5071832;28;20103;-83
2022/04/25 06:43:08;;;;;;;33.45;22.65;;;8.40;99.90;;;;;;5054914;28;20020;-83
2022/04/25 06:45:35;;;;;;;29.05;18.88;;;8.40;99.90;;;;;;5054845;28;20488;-84
2022/04/25 06:48:00;;;;;;;24.23;17.77;;;8.50;99.90;;;;;;5071686;28;20035;-84
2022/04/25 06:50:50;;;;;;;24.25;17.80;;;8.30;99.90;;;;;;5054531;28;20033;-83
2022/04/25 06:53:15;;;;;;;28.27;19.05;;;8.20;99.90;;;;;;5054849;28;20024;-84
2022/04/25 06:55:41;;;;;;;27.17;19.25;;;8.20;99.90;;;;;;5071714;28;20032;-83
2022/04/25 06:58:07;;;;;;;24.15;17.30;;;8.20;99.90;;;;;;5071595;28;20369;-83
2022/04/25 07:00:33;;;;;;;22.42;17.27;;;8.10;99.90;;;;;;5071137;28;20028;-83
2022/04/25 07:02:59;;;;;;;23.38;17.05;;;8.00;99.90;;;;;;5037414;28;20451;-83
2022/04/25 07:05:25;;;;;;;22.50;16.20;;;7.90;99.90;;;;;;5070965;28;20039;-82
2022/04/25 07:07:51;;;;;;;21.23;16.20;;;8.00;99.90;;;;;;5071168;28;20123;-83
2022/04/25 07:10:48;;;;;;;27.50;17.05;;;8.00;99.90;;;;;;5071247;28;20028;-82
2022/04/25 07:13:14;;;;;;;24.58;18.25;;;7.90;99.90;;;;;;5070954;28;20116;-83
2022/04/25 07:15:39;;;;;;;23.95;17.67;;;8.00;99.90;;;;;;5052988;28;20120;-83
2022/04/25 07:18:05;;;;;;;20.23;15.00;;;8.10;99.90;;;;;;5070867;28;20036;-83
2022/04/25 07:20:31;;;;;;;24.40;17.55;;;8.20;99.90;;;;;;5053019;28;20083;-83
2022/04/25 07:31:09;;;;;;;19.80;15.07;;;8.70;99.90;;;;;;5072839;28;20036;-83
2022/04/25 07:33:36;;;;;;;21.30;15.10;;;8.80;99.90;;;;;;5070866;28;20106;-83
2022/04/25 07:36:02;;;;;;;20.85;14.75;;;8.90;99.90;;;;;;5072409;28;20082;-84
2022/04/25 07:38:28;;;;;;;20.45;14.75;;;9.10;99.90;;;;;;5070894;28;20052;-83
2022/04/25 07:41:03;;;;;;;19.10;14.45;;;9.40;99.90;;;;;;5069330;28;20052;-83
2022/04/25 07:43:29;;;;;;;19.55;13.30;;;9.60;99.90;;;;;;5052380;28;20032;-83
2022/04/25 07:45:55;;;;;;;18.17;12.77;;;9.50;99.90;;;;;;5054128;28;20582;-83
2022/04/25 07:48:21;;;;;;;19.95;13.30;;;9.50;99.90;;;;;;5070821;28;20052;-83
2022/04/25 07:50:47;;;;;;;19.83;14.18;;;9.60;99.90;;;;;;5053974;28;20365;-83
2022/04/25 07:53:14;;;;;;;16.63;12.82;;;9.90;99.90;;;;;;5071968;28;20037;-83
2022/04/25 07:55:39;;;;;;;19.88;14.65;;;10.10;99.90;;;;;;5053664;28;20027;-82
2022/04/25 07:58:08;;;;;;;18.55;13.43;;;10.00;99.90;;;;;;5070774;28;20808;-83
2022/04/25 08:00:35;;;;;;;18.90;14.35;;;10.10;99.90;;;;;;5070607;28;20029;-83
2022/04/25 08:03:01;;;;;;;20.67;14.63;;;10.10;99.90;;;;;;5055006;28;20119;-83
2022/04/25 08:05:27;;;;;;;20.52;13.52;;;10.20;99.90;;;;;;5057519;28;20500;-82
2022/04/25 08:07:53;;;;;;;17.77;13.57;;;10.50;99.90;;;;;;5075366;28;20078;-83
2022/04/25 08:10:19;;;;;;;18.25;14.57;;;10.70;99.90;;;;;;5057445;28;20037;-82
2022/04/25 08:18:13;;;;;;;17.73;13.05;;;11.00;99.90;;;;;;5073814;28;20040;-83
2022/04/25 08:20:40;;;;;;;17.75;13.57;;;10.90;99.90;;;;;;5074214;28;20078;-83
2022/04/25 08:23:09;;;;;;;18.40;14.25;;;10.80;99.90;;;;;;5074442;28;20059;-83
2022/04/25 08:25:36;;;;;;;18.75;14.60;;;10.60;99.90;;;;;;5074210;28;20086;-83
2022/04/25 08:28:07;;;;;;;22.65;13.48;;;10.50;99.90;;;;;;5074020;28;20443;-83
2022/04/25 08:30:33;;;;;;;19.85;13.88;;;10.80;99.90;;;;;;5071401;28;20081;-83
2022/04/25 08:33:00;;;;;;;26.27;14.07;;;11.10;99.90;;;;;;5074883;28;20032;-83
2022/04/25 08:35:26;;;;;;;18.13;13.98;;;11.50;99.90;;;;;;5071927;28;20028;-83
2022/04/25 08:37:54;;;;;;;18.40;13.25;;;11.80;99.90;;;;;;5073521;28;20070;-83
2022/04/25 08:40:21;;;;;;;13.85;10.80;;;12.60;99.90;;;;;;5057063;28;20032;-83
2022/04/25 08:42:47;;;;;;;13.93;10.82;;;12.70;99.90;;;;;;5057083;28;20032;-83
2022/04/25 08:45:14;;;;;;;16.30;13.07;;;12.70;99.90;;;;;;5056862;28;20123;-83
2022/04/25 08:47:47;;;;;;;15.55;11.70;;;12.60;99.90;;;;;;5072698;28;20021;-83
2022/04/25 08:50:17;;;;;;;15.85;10.88;;;13.00;99.90;;;;;;5069614;28;20032;-83
2022/04/25 08:52:43;;;;;;;13.52;11.40;;;13.40;99.90;;;;;;5073299;28;20029;-83
2022/04/25 08:55:10;;;;;;;15.35;12.85;;;12.70;99.90;;;;;;5073161;28;20132;-82
2022/04/25 08:57:37;;;;;;;21.48;14.27;;;12.30;99.90;;;;;;5056803;28;20086;-83
2022/04/25 09:00:11;;;;;;;16.58;11.93;;;12.10;99.90;;;;;;5056534;28;20368;-84
2022/04/25 09:02:40;;;;;;;15.95;12.63;;;11.80;99.90;;;;;;5056687;28;20070;-83
2022/04/25 09:05:09;;;;;;;15.80;12.80;;;11.40;99.90;;;;;;5056060;28;20025;-83
2022/04/25 09:07:37;;;;;;;18.85;13.35;;;11.20;99.90;;;;;;5056706;28;20483;-83
2022/04/25 09:10:08;;;;;;;17.58;11.52;;;11.90;99.90;;;;;;5057076;28;20029;-83
2022/04/25 09:12:53;;;;;;;10.25;9.13;;;13.40;99.90;;;;;;5073524;28;20506;-83
2022/04/25 09:15:21;;;;;;;13.90;10.75;;;14.50;99.90;;;;;;5073109;28;20028;-83
2022/04/25 09:17:47;;;;;;;12.93;9.23;;;15.20;99.90;;;;;;5056260;28;20434;-84
2022/04/25 09:20:15;;;;;;;11.32;9.68;;;15.70;99.90;;;;;;5074036;28;20041;-83
2022/04/25 09:22:41;;;;;;;10.98;9.88;;;14.70;99.90;;;;;;5056395;28;20560;-83
2022/04/25 09:25:11;;;;;;;10.98;9.63;;;13.90;99.90;;;;;;5055518;28;20589;-83
2022/04/25 09:27:37;;;;;;;12.25;9.43;;;13.60;99.90;;;;;;5072649;28;20856;-83
2022/04/25 09:30:14;;;;;;;12.07;10.05;;;13.20;99.90;;;;;;5056275;28;20028;-83
2022/04/25 09:32:41;;;;;;;11.77;9.88;;;13.30;99.90;;;;;;5056579;28;20064;-83
2022/04/25 09:35:28;;;;;;;11.95;9.63;;;14.30;99.90;;;;;;5072709;28;20059;-84
2022/04/25 09:37:54;;;;;;;11.23;8.70;;;15.80;99.90;;;;;;5055818;28;20036;-83
2022/04/25 09:40:22;;;;;;;10.18;9.07;;;15.20;99.90;;;;;;5067771;28;20078;-83
2022/04/25 09:43:14;;;;;;;10.90;9.80;;;14.80;99.90;;;;;;5055915;28;20494;-83
2022/04/25 09:45:43;;;;;;;11.80;9.48;;;14.70;99.90;;;;;;5055625;28;20029;-83
2022/04/25 09:48:10;;;;;;;13.27;9.38;;;15.20;99.90;;;;;;5055568;28;20036;-83
2022/04/25 09:50:37;;;;;;;12.40;8.73;;;15.70;99.90;;;;;;5055296;28;20805;-84
2022/04/25 09:53:05;;;;;;;10.82;9.63;;;16.30;99.90;;;;;;5067825;28;20036;-84
2022/04/25 09:55:39;;;;;;;12.15;9.85;;;15.50;99.90;;;;;;5073377;28;20082;-83
2022/04/25 09:58:19;;;;;;;13.15;9.57;;;14.60;99.90;;;;;;5072079;28;20582;-83
2022/04/25 10:00:46;;;;;;;14.50;10.48;;;14.40;99.90;;;;;;5055101;28;20142;-83
2022/04/25 10:03:15;;;;;;;14.43;10.43;;;14.50;99.90;;;;;;5071899;28;20031;-83
2022/04/25 10:05:46;;;;;;;13.20;10.50;;;15.50;99.90;;;;;;5054340;28;20078;-83
2022/04/25 10:08:17;;;;;;;13.43;9.40;;;15.80;99.90;;;;;;5054691;28;20035;-84
2022/04/25 10:10:53;;;;;;;10.68;9.23;;;16.40;99.90;;;;;;5071254;28;20416;-83
2022/04/25 10:13:19;;;;;;;9.60;8.60;;;16.20;99.90;;;;;;5071381;28;20036;-84
2022/04/25 10:15:51;;;;;;;9.93;8.85;;;16.00;99.90;;;;;;5071883;28;20111;-83
2022/04/25 10:18:17;;;;;;;10.05;9.05;;;15.80;99.90;;;;;;5071831;28;20090;-83
2022/04/25 10:20:46;;;;;;;11.27;9.05;;;15.40;99.90;;;;;;5054993;28;20028;-83
2022/04/25 10:23:14;;;;;;;10.10;7.97;;;15.70;99.90;;;;;;5055374;28;20032;-83
2022/04/25 10:26:07;;;;;;;13.15;8.45;;;16.50;99.90;;;;;;5071400;28;20414;-84
2022/04/25 10:28:33;;;;;;;8.88;7.75;;;17.10;99.90;;;;;;5072002;28;20035;-83
2022/04/25 10:31:16;;;;;;;9.23;8.20;;;16.90;99.90;;;;;;5055405;28;20028;-83
2022/04/25 10:33:59;;;;;;;8.55;7.05;;;16.60;99.90;;;;;;5051287;28;20119;-83
2022/04/25 10:36:39;;;;;;;9.88;8.57;;;16.30;99.90;;;;;;5071795;28;20086;-84
2022/04/25 10:39:27;;;;;;;8.52;7.70;;;16.10;99.90;;;;;;5071419;28;20086;-84
2022/04/25 10:44:37;;;;;;;8.73;7.63;;;16.80;99.90;;;;;;5071330;28;20041;-83
2022/04/25 10:47:06;;;;;;;8.98;7.95;;;17.20;99.90;;;;;;5072932;28;20069;-84
2022/04/25 10:49:44;;;;;;;10.30;8.20;;;16.90;99.90;;;;;;5054793;28;20074;-83
2022/04/25 10:52:32;;;;;;;9.57;8.30;;;16.60;99.90;;;;;;5054829;28;20024;-84
2022/04/25 10:55:46;;;;;;;11.52;7.93;;;16.10;99.90;;;;;;5072179;28;20472;-83
2022/04/25 10:58:13;;;;;;;10.95;8.32;;;16.40;99.90;;;;;;5042869;28;20131;-83
2022/04/25 11:00:45;;;;;;;10.55;8.77;;;15.50;99.90;;;;;;5054193;28;20036;-83
2022/04/25 11:03:14;;;;;;;9.45;8.50;;;15.00;99.90;;;;;;5071287;28;20032;-84
2022/04/25 11:05:44;;;;;;;10.77;8.20;;;14.50;99.90;;;;;;5054195;28;20028;-83
2022/04/25 11:08:16;;;;;;;10.02;8.43;;;14.40;99.90;;;;;;5067148;28;20380;-83
2022/04/25 11:11:02;;;;;;;10.88;8.07;;;14.80;99.90;;;;;;5054565;28;20505;-83
2022/04/25 11:13:32;;;;;;;9.65;8.73;;;14.90;99.90;;;;;;5054646;28;20037;-83
2022/04/25 11:16:13;;;;;;;11.73;9.30;;;14.20;99.90;;;;;;5054044;28;20581;-83
2022/04/25 11:18:41;;;;;;;;;;;14.80;99.90;;;;;;5055026;28;20123;-84
2022/04/25 11:21:13;;;;;;;10.52;8.00;;;16.10;99.90;;;;;;5054271;28;20011;-83
2022/04/25 11:23:44;;;;;;;8.88;7.53;;;16.30;99.90;;;;;;5054147;28;20037;-84
2022/04/25 11:26:36;;;;;;;10.75;8.20;;;15.70;99.90;;;;;;5054071;28;20032;-83
2022/04/25 11:29:03;;;;;;;7.85;6.95;;;15.80;99.90;;;;;;5027414;28;20060;-84
2022/04/25 11:31:31;;;;;;;11.27;8.13;;;16.00;99.90;;;;;;5053342;28;20487;-83
2022/04/25 11:34:02;;;;;;;10.52;7.68;;;16.00;99.90;;;;;;5070576;28;20447;-83
2022/04/25 11:36:29;;;;;;;8.80;7.05;;;16.50;99.90;;;;;;5071508;28;20032;-83
2022/04/25 11:41:44;;;;;;;8.05;6.95;;;15.70;99.90;;;;;;5075791;28;20032;-86
2022/04/25 11:44:10;;;;;;;7.95;6.97;;;15.70;99.90;;;;;;5076460;28;20548;-83
2022/04/25 11:46:39;;;;;;;9.10;8.15;;;15.30;99.90;;;;;;5058099;28;20059;-83
2022/04/25 11:49:06;;;;;;;8.68;6.88;;;14.90;99.90;;;;;;5057434;28;20701;-83
2022/04/25 11:51:35;;;;;;;7.57;6.80;;;15.00;99.90;;;;;;5074569;28;20036;-84
2022/04/25 11:54:10;;;;;;;8.80;7.82;;;15.70;99.90;;;;;;5074751;28;20081;-83
2022/04/25 11:56:40;;;;;;;10.60;7.63;;;16.00;99.90;;;;;;5058021;28;20082;-83
2022/04/25 11:59:13;;;;;;;12.30;7.07;;;16.90;99.90;;;;;;5074229;28;20028;-83
2022/04/25 12:01:41;;;;;;;8.32;7.45;;;17.60;99.90;;;;;;5074061;28;20044;-84
2022/04/25 12:04:28;;;;;;;8.00;7.20;;;17.70;99.90;;;;;;5075795;28;20029;-83
2022/04/25 12:06:59;;;;;;;9.73;8.18;;;17.30;99.90;;;;;;5070648;28;20081;-83
2022/04/25 12:17:52;;;;;;;8.65;7.75;;;17.70;99.90;;;;;;5075586;28;20072;-83
2022/04/25 12:20:30;;;;;;;8.55;7.57;;;17.80;99.90;;;;;;5075310;28;20380;-83
2022/04/25 12:22:58;;;;;;;8.02;6.95;;;17.20;99.90;;;;;;5057714;28;20468;-83
2022/04/25 12:25:29;;;;;;;11.00;6.95;;;17.30;99.90;;;;;;5056903;28;20021;-83
2022/04/25 12:28:15;;;;;;;7.68;6.88;;;17.20;99.90;;;;;;5056153;28;20039;-83
2022/04/25 12:31:02;;;;;;;11.40;7.97;;;16.50;99.90;;;;;;5057575;28;20439;-83
2022/04/25 12:33:33;;;;;;;10.45;8.73;;;16.50;99.90;;;;;;5057084;28;20050;-83
2022/04/25 12:36:25;;;;;;;13.02;9.23;;;16.50;99.90;;;;;;5056101;28;20028;-83
2022/04/25 12:38:51;;;;;;;11.73;9.35;;;16.40;99.90;;;;;;5056362;28;20571;-83
2022/04/25 12:41:26;;;;;;;14.30;8.93;;;16.90;99.90;;;;;;5055779;28;20037;-83
2022/04/25 12:43:54;;;;;;;9.07;8.18;;;17.20;99.90;;;;;;5073060;28;20029;-83
2022/04/25 12:46:42;;;;;;;10.60;8.27;;;17.60;99.90;;;;;;5056698;28;20024;-83
2022/04/25 12:49:13;;;;;;;14.60;10.00;;;17.20;99.90;;;;;;5073050;28;20032;-83
2022/04/25 12:51:54;;;;;;;11.10;8.18;;;17.30;99.90;;;;;;5073927;28;20032;-83
2022/04/25 12:54:47;;;;;;;9.90;7.55;;;17.90;99.90;;;;;;5073448;28;20037;-84
2022/04/25 12:57:28;;;;;;;8.25;7.43;;;17.90;99.90;;;;;;5070160;28;20041;-84
2022/04/25 12:59:54;;;;;;;10.65;9.10;;;18.90;99.90;;;;;;5073492;28;20039;-84
2022/04/25 13:02:35;;;;;;;8.93;8.02;;;19.60;99.90;;;;;;5072767;28;20032;-83
2022/04/25 13:05:12;;;;;;;6.32;4.55;;;19.40;99.90;;;;;;5056448;28;20036;-84
2022/04/25 13:07:40;;;;;;;5.30;4.80;;;19.10;99.90;;;;;;5073287;28;20031;-84
2022/04/25 13:10:08;;;;;;;7.32;5.53;;;18.50;99.90;;;;;;5056719;28;20121;-84
2022/04/25 13:12:39;;;;;;;6.07;5.35;;;17.40;99.90;;;;;;5068959;28;20060;-83
2022/04/25 13:15:12;;;;;;;6.03;5.38;;;16.70;99.90;;;;;;5073822;28;20119;-83
2022/04/25 13:17:39;;;;;;;6.75;5.00;;;15.60;99.90;;;;;;5056499;28;20032;-84
2022/04/25 13:20:06;;;;;;;7.78;5.63;;;15.20;99.90;;;;;;5056054;28;20592;-84
2022/04/25 13:22:33;;;;;;;8.52;6.60;;;15.20;99.90;;;;;;5055654;28;20035;-83
2022/04/25 13:24:59;;;;;;;7.38;6.68;;;15.10;99.90;;;;;;5054502;28;20069;-83